createdAt,value
2019-01-20T00:00:52.321Z,99.32
2019-01-20T00:03:23.673Z,99.37
2019-01-20T00:05:56.794Z,99.53
2019-01-20T00:08:30.801Z,99.62
2019-01-20T00:11:02.578Z,99.59
2019-01-20T00:13:35.845Z,99.45
2019-01-20T00:16:10.026Z,99.34
2019-01-20T00:18:43.903Z,99.37
2019-01-20T00:21:17.892Z,99.44
2019-01-20T00:23:51.883Z,99.41
2019-01-20T00:26:24.890Z,99.41
2019-01-20T00:28:56.842Z,99.53
2019-01-20T00:31:30.834Z,99.47
2019-01-20T00:34:04.081Z,99.63
2019-01-20T00:36:35.781Z,99.92
2019-01-20T00:39:10.527Z,99.92
2019-01-20T00:41:42.783Z,99.71
2019-01-20T00:44:14.838Z,99.70
2019-01-20T00:46:46.114Z,99.65
2019-01-20T00:49:19.897Z,99.66
2019-01-20T00:51:53.917Z,99.69
2019-01-20T00:54:27.008Z,99.82
2019-01-20T00:56:58.979Z,99.73
2019-01-20T00:59:32.876Z,99.65
2019-01-20T01:02:05.207Z,99.71
2019-01-20T01:04:37.838Z,99.76
2019-01-20T01:07:09.177Z,99.95
2019-01-20T01:09:43.421Z,99.91
2019-01-20T01:12:18.799Z,99.91
2019-01-20T01:14:51.098Z,100.00
2019-01-20T01:17:24.137Z,100.00
2019-01-20T01:19:56.159Z,100.00
2019-01-20T01:22:29.869Z,100.00
2019-01-20T01:25:01.215Z,100.00
2019-01-20T01:27:34.117Z,100.00
2019-01-20T01:30:19.530Z,100.00
2019-01-20T01:32:51.030Z,100.00
2019-01-20T01:35:25.071Z,100.00
2019-01-20T01:38:00.638Z,100.00
2019-01-20T01:40:33.289Z,100.00
2019-01-20T01:43:05.245Z,100.00
2019-01-20T01:45:38.099Z,100.00
2019-01-20T01:48:09.400Z,100.00
2019-01-20T01:50:40.648Z,100.00
2019-01-20T01:53:14.203Z,100.00
2019-01-20T01:55:48.234Z,100.00
2019-01-20T01:58:22.235Z,100.00
2019-01-20T02:00:56.264Z,100.00
2019-01-20T02:03:30.114Z,99.99
2019-01-20T02:06:01.401Z,99.91
2019-01-20T02:08:35.304Z,100.00
2019-01-20T02:11:11.141Z,100.00
2019-01-20T02:13:45.036Z,99.88
2019-01-20T02:16:16.320Z,100.00
2019-01-20T02:18:48.708Z,99.99
2019-01-20T02:21:21.356Z,99.99
2019-01-20T02:23:52.621Z,100.00
2019-01-20T02:26:23.905Z,100.00
2019-01-20T02:28:57.395Z,100.00
2019-01-20T02:31:31.519Z,100.00
2019-01-20T02:34:04.571Z,100.00
2019-01-20T02:36:36.383Z,100.00
2019-01-20T02:39:09.568Z,100.00
2019-01-20T02:41:41.587Z,100.00
2019-01-20T02:44:14.470Z,100.00
2019-01-20T02:46:46.430Z,100.00
2019-01-20T02:49:17.716Z,100.00
2019-01-20T02:51:48.964Z,100.00
2019-01-20T02:54:22.610Z,100.00
2019-01-20T02:56:58.113Z,100.00
2019-01-20T02:59:31.510Z,100.00
2019-01-20T03:02:03.647Z,100.00
2019-01-20T03:04:35.589Z,100.00
2019-01-20T03:07:09.763Z,100.00
2019-01-20T03:09:41.001Z,99.92
2019-01-20T03:12:12.574Z,99.87
2019-01-20T03:14:48.149Z,99.83
2019-01-20T03:17:19.518Z,99.98
2019-01-20T03:19:51.590Z,99.91
2019-01-20T03:22:24.649Z,99.74
2019-01-20T03:24:58.672Z,99.80
2019-01-20T03:27:34.177Z,99.83
2019-01-20T03:30:09.772Z,99.85
2019-01-20T03:32:43.646Z,99.79
2019-01-20T03:35:24.278Z,100.00
2019-01-20T03:37:57.657Z,99.84
2019-01-20T03:40:28.916Z,99.72
2019-01-20T03:43:01.592Z,99.72
2019-01-20T03:45:37.350Z,99.99
2019-01-20T03:48:09.861Z,100.00
2019-01-20T03:50:41.372Z,100.00
2019-01-20T03:53:14.843Z,100.00
2019-01-20T03:55:49.731Z,100.00
2019-01-20T03:58:22.960Z,100.00
2019-01-20T04:00:55.429Z,100.00
2019-01-20T04:03:29.997Z,100.00
2019-01-20T04:06:01.264Z,100.00
2019-01-20T04:08:32.731Z,100.00
2019-01-20T04:11:04.020Z,100.00
2019-01-20T04:13:35.287Z,100.00
2019-01-20T04:16:08.885Z,100.00
2019-01-20T04:18:42.917Z,100.00
2019-01-20T04:21:16.970Z,100.00
2019-01-20T04:23:51.293Z,100.00
2019-01-20T04:26:24.905Z,100.00
2019-01-20T04:28:56.524Z,100.00
2019-01-20T04:31:29.969Z,100.00
2019-01-20T04:34:01.245Z,100.00
2019-01-20T04:36:34.999Z,100.00
2019-01-20T04:39:08.441Z,100.00
2019-01-20T04:41:41.891Z,100.00
2019-01-20T04:44:14.174Z,100.00
2019-01-20T04:46:47.954Z,100.00
2019-01-20T04:49:23.644Z,100.00
2019-01-20T04:51:56.017Z,100.00
2019-01-20T04:54:27.462Z,100.00
2019-01-20T04:57:00.799Z,100.00
2019-01-20T04:59:35.054Z,100.00
2019-01-20T05:02:08.729Z,100.00
2019-01-20T05:04:39.998Z,100.00
2019-01-20T05:07:14.028Z,100.00
2019-01-20T05:09:48.027Z,100.00
2019-01-20T05:12:19.284Z,100.00
2019-01-20T05:14:50.537Z,100.00
2019-01-20T05:17:24.256Z,100.00
2019-01-20T05:19:58.242Z,100.00
2019-01-20T05:22:32.284Z,100.00
2019-01-20T05:25:08.352Z,100.00
2019-01-20T05:27:40.263Z,100.00
2019-01-20T05:30:17.244Z,100.00
2019-01-20T05:32:48.593Z,99.60
2019-01-20T05:35:22.181Z,99.87
2019-01-20T05:37:53.725Z,99.82
2019-01-20T05:40:25.007Z,100.00
2019-01-20T05:42:58.276Z,100.00
2019-01-20T05:45:30.361Z,100.00
2019-01-20T05:48:01.650Z,99.95
2019-01-20T05:50:35.281Z,99.98
2019-01-20T05:53:07.332Z,99.99
2019-01-20T05:55:39.208Z,99.81
2019-01-20T05:58:14.882Z,99.68
2019-01-20T06:00:47.334Z,99.69
2019-01-20T06:03:19.035Z,99.80
2019-01-20T06:05:52.286Z,99.92
2019-01-20T06:08:26.423Z,100.00
2019-01-20T06:11:00.485Z,100.00
2019-01-20T06:13:34.659Z,100.00
2019-01-20T06:16:09.051Z,100.00
2019-01-20T06:18:40.319Z,100.00
2019-01-20T06:21:13.403Z,100.00
2019-01-20T06:23:48.958Z,100.00
2019-01-20T06:26:21.398Z,100.00
2019-01-20T06:28:53.101Z,100.00
2019-01-20T06:31:26.436Z,100.00
2019-01-20T06:34:00.448Z,100.00
2019-01-20T06:36:31.828Z,100.00
2019-01-20T06:39:08.514Z,100.00
2019-01-20T06:41:41.555Z,99.80
2019-01-20T06:44:13.566Z,99.97
2019-01-20T06:46:47.741Z,100.00
2019-01-20T06:49:19.565Z,100.00
2019-01-20T06:51:52.476Z,99.79
2019-01-20T06:54:26.525Z,99.85
2019-01-20T06:57:00.662Z,99.87
2019-01-20T06:59:36.210Z,99.29
2019-01-20T07:02:07.627Z,99.05
2019-01-20T07:04:39.607Z,98.99
2019-01-20T07:07:12.902Z,99.02
2019-01-20T07:09:44.439Z,98.82
2019-01-20T07:12:15.728Z,99.02
2019-01-20T07:14:49.695Z,98.93
2019-01-20T07:17:23.624Z,98.10
2019-01-20T07:19:56.623Z,97.57
2019-01-20T07:22:28.588Z,97.04
2019-01-20T07:25:00.816Z,96.38
2019-01-20T07:27:32.715Z,95.77
2019-01-20T07:30:07.473Z,95.34
2019-01-20T07:32:41.015Z,95.08
2019-01-20T07:35:14.768Z,95.12
2019-01-20T07:37:48.898Z,94.82
2019-01-20T07:40:24.876Z,94.68
2019-01-20T07:42:57.462Z,94.58
2019-01-20T07:45:28.724Z,94.71
2019-01-20T07:48:01.771Z,94.60
2019-01-20T07:50:34.690Z,94.38
2019-01-20T07:53:08.068Z,94.42
2019-01-20T07:55:41.790Z,93.90
2019-01-20T07:58:15.783Z,93.60
2019-01-20T08:00:51.185Z,93.75
2019-01-20T08:03:23.917Z,93.76
2019-01-20T08:05:57.839Z,93.72
2019-01-20T08:08:30.851Z,93.64
2019-01-20T08:11:04.863Z,93.28
2019-01-20T08:13:38.860Z,93.20
2019-01-20T08:16:10.189Z,92.97
2019-01-20T08:18:41.510Z,92.44
2019-01-20T08:21:15.035Z,92.34
2019-01-20T08:23:48.945Z,92.09
2019-01-20T08:26:23.054Z,91.91
2019-01-20T08:28:57.077Z,91.92
2019-01-20T08:31:30.979Z,91.83
2019-01-20T08:34:02.281Z,91.91
2019-01-20T08:36:33.590Z,92.20
2019-01-20T08:39:08.537Z,92.26
2019-01-20T08:41:41.115Z,91.65
2019-01-20T08:44:15.666Z,91.38
2019-01-20T08:47:07.482Z,90.97
2019-01-20T08:49:41.319Z,90.98
2019-01-20T08:52:14.972Z,91.45
2019-01-20T08:54:49.036Z,91.21
2019-01-20T08:57:20.301Z,91.77
2019-01-20T08:59:54.004Z,91.90
2019-01-20T09:02:29.695Z,91.50
2019-01-20T09:05:01.050Z,90.72
2019-01-20T09:07:33.103Z,90.75
2019-01-20T09:10:14.538Z,90.76
2019-01-20T09:12:47.109Z,90.87
2019-01-20T09:15:21.143Z,91.00
2019-01-20T09:17:55.308Z,90.26
2019-01-20T09:20:26.649Z,90.27
2019-01-20T09:22:59.411Z,90.23
2019-01-20T09:25:33.252Z,90.60
2019-01-20T09:28:07.242Z,90.39
2019-01-20T09:30:38.496Z,90.24
2019-01-20T09:33:09.835Z,90.06
2019-01-20T09:35:43.221Z,89.78
2019-01-20T09:38:17.435Z,89.15
2019-01-20T09:40:51.432Z,89.41
2019-01-20T09:43:26.961Z,89.31
2019-01-20T09:45:59.374Z,89.15
2019-01-20T09:48:33.507Z,88.80
2019-01-20T09:51:05.990Z,88.35
2019-01-20T09:53:38.319Z,87.84
2019-01-20T09:56:12.517Z,88.60
2019-01-20T09:58:46.366Z,88.65
2019-01-20T10:01:20.151Z,88.22
2019-01-20T10:03:51.422Z,87.83
2019-01-20T10:06:24.375Z,87.83
2019-01-20T10:09:00.113Z,87.60
2019-01-20T10:11:33.513Z,87.77
2019-01-20T10:14:07.469Z,87.48
2019-01-20T10:16:40.506Z,87.21
2019-01-20T10:19:12.399Z,86.84
2019-01-20T10:21:46.502Z,86.36
2019-01-20T10:24:17.781Z,87.04
2019-01-20T10:26:50.509Z,87.05
2019-01-20T10:29:26.054Z,86.52
2019-01-20T10:31:58.529Z,86.28
2019-01-20T10:34:31.262Z,85.10
2019-01-20T10:37:04.350Z,85.90
2019-01-20T10:39:38.326Z,85.62
2019-01-20T10:42:13.121Z,84.74
2019-01-20T10:44:45.522Z,84.58
2019-01-20T10:47:18.624Z,84.60
2019-01-20T10:49:50.561Z,84.49
2019-01-20T10:52:22.012Z,84.36
2019-01-20T10:54:55.613Z,84.03
2019-01-20T10:57:26.871Z,83.21
2019-01-20T10:59:58.172Z,82.93
2019-01-20T11:02:31.607Z,82.52
2019-01-20T11:05:04.713Z,83.51
2019-01-20T11:07:36.857Z,83.35
2019-01-20T11:10:08.976Z,82.33
2019-01-20T11:12:42.112Z,82.43
2019-01-20T11:15:16.064Z,82.01
2019-01-20T11:17:49.827Z,82.00
2019-01-20T11:20:21.090Z,81.96
2019-01-20T11:22:52.458Z,82.08
2019-01-20T11:25:28.594Z,81.48
2019-01-20T11:28:02.736Z,81.02
2019-01-20T11:30:34.010Z,82.13
2019-01-20T11:33:08.203Z,82.74
2019-01-20T11:35:41.929Z,81.70
2019-01-20T11:38:13.202Z,82.11
2019-01-20T11:40:46.943Z,82.58
2019-01-20T11:43:20.871Z,82.90
2019-01-20T11:45:54.843Z,82.41
2019-01-20T11:48:28.889Z,81.77
2019-01-20T11:51:01.231Z,81.07
2019-01-20T11:53:32.544Z,81.78
2019-01-20T11:56:05.255Z,82.00
2019-01-20T11:58:39.116Z,82.12
2019-01-20T12:01:12.909Z,81.91
2019-01-20T12:03:44.166Z,81.14
2019-01-20T12:06:17.942Z,82.01
2019-01-20T12:08:51.944Z,81.70
2019-01-20T12:11:25.745Z,80.85
2019-01-20T12:13:57.030Z,82.03
2019-01-20T12:16:30.989Z,82.10
2019-01-20T12:19:05.041Z,81.77
2019-01-20T12:21:38.973Z,80.52
2019-01-20T12:24:11.840Z,81.00
2019-01-20T12:26:44.065Z,81.27
2019-01-20T12:29:17.918Z,80.39
2019-01-20T12:31:49.201Z,81.30
2019-01-20T12:34:23.266Z,82.23
2019-01-20T12:36:57.147Z,83.28
2019-01-20T12:39:31.146Z,82.47
2019-01-20T12:42:05.194Z,82.26
2019-01-20T12:44:38.138Z,81.54
2019-01-20T12:47:09.825Z,80.99
2019-01-20T12:49:43.230Z,80.43
2019-01-20T12:52:17.239Z,80.09
2019-01-20T12:54:51.366Z,80.57
2019-01-20T12:57:25.339Z,81.32
2019-01-20T12:59:59.206Z,81.66
2019-01-20T13:02:30.656Z,82.14
2019-01-20T13:05:01.940Z,82.91
2019-01-20T13:07:33.648Z,83.13
2019-01-20T13:10:08.276Z,83.32
2019-01-20T13:12:40.255Z,82.29
2019-01-20T13:15:19.013Z,82.18
2019-01-20T13:17:51.217Z,81.95
2019-01-20T13:20:24.080Z,81.22
2019-01-20T13:22:56.193Z,81.65
2019-01-20T13:25:31.892Z,82.38
2019-01-20T13:28:05.497Z,81.81
2019-01-20T13:30:39.988Z,81.12
2019-01-20T13:33:11.269Z,81.70
2019-01-20T13:35:42.607Z,81.64
2019-01-20T13:38:16.453Z,81.93
2019-01-20T13:41:12.126Z,81.28
2019-01-20T13:43:43.392Z,81.26
2019-01-20T13:46:14.634Z,80.92
2019-01-20T13:48:48.024Z,80.91
2019-01-20T13:51:19.240Z,80.63
2019-01-20T13:53:52.531Z,79.65
2019-01-20T13:56:26.536Z,79.62
2019-01-20T13:58:58.455Z,80.89
2019-01-20T14:01:30.224Z,80.89
2019-01-20T14:04:01.611Z,81.51
2019-01-20T14:06:33.392Z,80.37
2019-01-20T14:09:08.697Z,80.51
2019-01-20T14:11:42.132Z,80.21
2019-01-20T14:14:13.422Z,79.78
2019-01-20T14:16:47.395Z,79.86
2019-01-20T14:19:21.851Z,80.15
2019-01-20T14:21:54.593Z,80.20
2019-01-20T14:24:27.744Z,80.54
2019-01-20T14:27:00.557Z,79.98
2019-01-20T14:29:35.272Z,80.50
2019-01-20T14:32:08.497Z,80.36
2019-01-20T14:34:42.909Z,80.16
2019-01-20T14:37:15.471Z,81.10
2019-01-20T14:39:46.799Z,81.04
2019-01-20T14:42:18.605Z,80.85
2019-01-20T14:44:52.661Z,81.90
2019-01-20T14:47:25.601Z,81.72
2019-01-20T14:49:57.289Z,82.07
2019-01-20T14:52:30.576Z,82.50
2019-01-20T14:55:01.902Z,83.20
2019-01-20T14:57:35.766Z,82.78
2019-01-20T15:00:12.053Z,83.45
2019-01-20T15:02:43.793Z,83.49
2019-01-20T15:05:17.825Z,83.46
2019-01-20T15:07:49.209Z,83.89
2019-01-20T15:10:20.584Z,83.73
2019-01-20T15:12:53.894Z,83.89
2019-01-20T15:15:32.176Z,83.55
2019-01-20T15:18:05.952Z,83.78
2019-01-20T15:20:39.522Z,83.64
2019-01-20T15:23:13.574Z,83.43
2019-01-20T15:25:46.932Z,83.54
2019-01-20T15:28:20.835Z,84.10
2019-01-20T15:30:58.085Z,84.17
2019-01-20T15:33:29.345Z,84.72
2019-01-20T15:36:01.716Z,84.66
2019-01-20T15:38:34.050Z,84.18
2019-01-20T15:41:08.111Z,84.81
2019-01-20T15:43:39.844Z,84.81
2019-01-20T15:46:12.880Z,85.20
2019-01-20T15:48:46.423Z,85.72
2019-01-20T15:51:17.974Z,86.40
2019-01-20T15:53:55.326Z,86.58
2019-01-20T15:56:29.014Z,86.41
2019-01-20T15:59:01.746Z,86.36
2019-01-20T16:01:34.166Z,86.64
2019-01-20T16:04:08.099Z,86.72
2019-01-20T16:06:41.917Z,86.39
2019-01-20T16:09:13.207Z,86.66
2019-01-20T16:11:44.584Z,86.73
2019-01-20T16:14:18.199Z,86.77
2019-01-20T16:16:52.223Z,87.05
2019-01-20T16:19:23.502Z,86.88
2019-01-20T16:21:57.127Z,87.09
2019-01-20T16:24:31.016Z,87.06
2019-01-20T16:27:02.621Z,87.29
2019-01-20T16:29:35.103Z,87.51
2019-01-20T16:32:06.829Z,87.58
2019-01-20T16:34:40.248Z,87.58
2019-01-20T16:37:14.141Z,87.60
2019-01-20T16:39:49.785Z,87.61
2019-01-20T16:42:22.292Z,87.88
2019-01-20T16:44:56.208Z,87.83
2019-01-20T16:47:27.786Z,87.82
2019-01-20T16:50:01.132Z,88.08
2019-01-20T16:52:35.075Z,88.00
2019-01-20T16:55:08.816Z,88.05
2019-01-20T16:57:40.175Z,87.89
2019-01-20T17:00:16.638Z,87.92
2019-01-20T17:02:48.142Z,88.07
2019-01-20T17:05:19.766Z,88.01
2019-01-20T17:07:51.105Z,87.86
2019-01-20T17:10:26.940Z,88.22
2019-01-20T17:12:58.252Z,88.43
2019-01-20T17:15:39.368Z,88.28
2019-01-20T17:18:09.967Z,88.34
2019-01-20T17:20:41.841Z,88.50
2019-01-20T17:23:14.312Z,88.74
2019-01-20T17:25:48.451Z,89.13
2019-01-20T17:28:22.327Z,87.98
2019-01-20T17:30:54.526Z,87.97
2019-01-20T17:33:28.531Z,87.96
2019-01-20T17:36:01.270Z,88.07
2019-01-20T17:38:32.738Z,88.27
2019-01-20T17:41:06.529Z,88.58
2019-01-20T17:43:40.381Z,88.81
2019-01-20T17:46:14.340Z,89.05
2019-01-20T17:48:47.583Z,89.36
2019-01-20T17:51:19.756Z,89.54
2019-01-20T17:53:53.202Z,89.86
2019-01-20T17:56:24.479Z,90.05
2019-01-20T17:58:58.459Z,90.15
2019-01-20T18:01:32.546Z,90.19
2019-01-20T18:04:04.225Z,90.52
2019-01-20T18:06:37.572Z,91.19
2019-01-20T18:09:12.049Z,91.77
2019-01-20T18:11:45.338Z,92.14
2019-01-20T18:14:16.637Z,92.42
2019-01-20T18:16:50.596Z,92.53
2019-01-20T18:19:24.709Z,92.66
2019-01-20T18:21:58.708Z,92.66
2019-01-20T18:24:32.731Z,92.74
2019-01-20T18:27:05.616Z,92.88
2019-01-20T18:29:37.478Z,93.03
2019-01-20T18:32:08.745Z,93.18
2019-01-20T18:34:42.628Z,93.39
2019-01-20T18:37:16.654Z,93.35
2019-01-20T18:39:50.701Z,93.37
2019-01-20T18:42:23.766Z,93.37
2019-01-20T18:44:57.660Z,93.37
2019-01-20T18:47:29.507Z,93.42
2019-01-20T18:50:01.884Z,93.60
2019-01-20T18:52:34.634Z,93.82
2019-01-20T18:55:10.719Z,93.89
2019-01-20T18:57:44.918Z,93.99
2019-01-20T19:00:28.172Z,94.07
2019-01-20T19:03:01.835Z,94.31
2019-01-20T19:05:33.670Z,94.53
2019-01-20T19:08:05.955Z,94.54
2019-01-20T19:10:37.911Z,94.40
2019-01-20T19:13:09.590Z,94.29
2019-01-20T19:15:43.851Z,94.16
2019-01-20T19:18:19.083Z,94.34
2019-01-20T19:20:50.864Z,94.59
2019-01-20T19:23:24.824Z,94.89
2019-01-20T19:25:57.852Z,95.06
2019-01-20T19:28:30.072Z,95.19
2019-01-20T19:31:01.417Z,95.29
2019-01-20T19:33:34.986Z,95.67
2019-01-20T19:36:09.044Z,96.11
2019-01-20T19:38:42.934Z,96.50
2019-01-20T19:41:15.084Z,96.59
2019-01-20T19:43:48.020Z,96.67
2019-01-20T19:46:23.551Z,96.83
2019-01-20T19:48:55.995Z,96.65
2019-01-20T19:51:27.425Z,97.02
2019-01-20T19:54:00.982Z,97.43
2019-01-20T19:56:32.979Z,97.62
2019-01-20T19:59:05.106Z,97.67
2019-01-20T20:01:37.098Z,97.51
2019-01-20T20:04:08.393Z,97.50
2019-01-20T20:06:42.139Z,97.55
2019-01-20T20:09:17.630Z,97.62
2019-01-20T20:11:50.186Z,97.61
2019-01-20T20:14:24.271Z,97.64
2019-01-20T20:16:58.088Z,97.54
2019-01-20T20:19:31.053Z,97.57
2019-01-20T20:22:02.428Z,97.83
2019-01-20T20:24:36.229Z,98.04
2019-01-20T20:27:07.678Z,98.23
2019-01-20T20:29:41.109Z,98.28
2019-01-20T20:32:16.704Z,98.38
2019-01-20T20:34:53.671Z,98.55
2019-01-20T20:37:23.214Z,98.39
2019-01-20T20:39:57.105Z,98.48
2019-01-20T20:42:28.388Z,98.44
2019-01-20T20:45:02.034Z,98.49
2019-01-20T20:47:36.156Z,98.50
2019-01-20T20:50:10.210Z,98.69
2019-01-20T20:52:46.090Z,98.87
2019-01-20T20:55:15.739Z,98.90
2019-01-20T20:57:49.170Z,98.72
2019-01-20T21:00:35.541Z,98.84
2019-01-20T21:03:12.924Z,99.00
2019-01-20T21:05:46.237Z,98.97
2019-01-20T21:08:20.335Z,98.86
2019-01-20T21:10:54.234Z,98.73
2019-01-20T21:13:25.583Z,98.96
2019-01-20T21:15:59.281Z,99.02
2019-01-20T21:18:30.646Z,99.09
2019-01-20T21:21:02.163Z,99.06
2019-01-20T21:23:35.369Z,99.09
2019-01-20T21:26:08.500Z,99.08
2019-01-20T21:28:44.018Z,99.26
2019-01-20T21:31:16.989Z,99.25
2019-01-20T21:33:48.293Z,99.34
2019-01-20T21:36:21.468Z,99.29
2019-01-20T21:38:55.465Z,99.21
2019-01-20T21:41:26.763Z,99.35
2019-01-20T21:44:00.472Z,99.66
2019-01-20T21:46:36.101Z,99.87
2019-01-20T21:49:08.501Z,100.00
2019-01-20T21:51:39.785Z,100.00
2019-01-20T21:54:15.191Z,100.00
2019-01-20T21:56:47.611Z,100.00
2019-01-20T21:59:21.681Z,100.00
2019-01-20T22:01:55.692Z,100.00
2019-01-20T22:04:29.359Z,100.00
2019-01-20T22:07:01.546Z,100.00
2019-01-20T22:09:33.677Z,100.00
2019-01-20T22:12:06.412Z,99.78
2019-01-20T22:14:41.349Z,99.58
2019-01-20T22:17:13.571Z,99.72
2019-01-20T22:19:46.517Z,100.00
2019-01-20T22:22:20.576Z,100.00
2019-01-20T22:24:51.919Z,100.00
2019-01-20T22:27:23.169Z,100.00
2019-01-20T22:29:56.743Z,100.00
2019-01-20T22:32:30.834Z,100.00
2019-01-20T22:35:02.207Z,100.00
2019-01-20T22:37:35.583Z,100.00
2019-01-20T22:40:11.172Z,100.00
2019-01-20T22:42:43.304Z,100.00
2019-01-20T22:45:16.829Z,100.00
2019-01-20T22:47:52.471Z,100.00
2019-01-20T22:50:25.086Z,100.00
2019-01-20T22:52:58.892Z,100.00
2019-01-20T22:55:34.431Z,100.00
2019-01-20T22:58:06.847Z,100.00
2019-01-20T23:01:14.568Z,100.00
2019-01-20T23:03:47.737Z,100.00
2019-01-20T23:06:23.378Z,100.00
2019-01-20T23:08:55.783Z,100.00
2019-01-20T23:11:29.867Z,100.00
2019-01-20T23:14:01.128Z,100.00
2019-01-20T23:16:34.824Z,100.00
2019-01-20T23:19:10.478Z,100.00
2019-01-20T23:21:42.846Z,100.00
2019-01-20T23:24:14.137Z,100.00
2019-01-20T23:26:45.564Z,100.00
2019-01-20T23:29:18.859Z,100.00
2019-01-20T23:31:50.146Z,100.00
2019-01-20T23:34:23.914Z,100.00
2019-01-20T23:36:59.500Z,100.00
2019-01-20T23:39:31.919Z,100.00
2019-01-20T23:42:07.512Z,100.00
2019-01-20T23:44:40.009Z,100.00
2019-01-20T23:47:15.160Z,100.00
2019-01-20T23:49:48.433Z,100.00
2019-01-20T23:52:22.134Z,100.00
2019-01-20T23:54:55.983Z,100.00
2019-01-20T23:57:27.248Z,100.00
